Time;durP1;ratioP1;P1;durP2;ratioP2;P2;SDS_P1;SDS_P2;PMS_P1;PMS_P2;Temp;Humidity;BMP_temperature;BMP_pressure;BME280_temperature;BME280_humidity;BME280_pressure;Samples;Min_cycle;Max_cycle;Signal;HPM_P1;HPM_P2
2024/02/18 00:00:24;;;;;;;18.15;12.38;;;7.90;1.00;;;;;;7356476;19;20982;-71
2024/02/18 00:02:55;;;;;;;19.55;13.07;;;7.80;1.00;;;;;;7355513;19;20006;-71
2024/02/18 00:05:25;;;;;;;14.73;11.57;;;7.80;1.00;;;;;;7357005;19;20327;-71
2024/02/18 00:07:55;;;;;;;17.25;12.75;;;7.80;1.00;;;;;;7354590;19;20015;-70
2024/02/18 00:10:27;;;;;;;18.95;12.27;;;7.80;1.00;;;;;;7356482;19;20708;-71
2024/02/18 00:12:58;;;;;;;17.52;13.18;;;7.80;1.00;;;;;;7355147;19;20018;-71
2024/02/18 00:15:28;;;;;;;16.67;12.35;;;7.80;1.00;;;;;;7354744;19;20101;-72
2024/02/18 00:17:58;;;;;;;18.13;12.60;;;7.80;1.00;;;;;;7355040;19;20416;-72
2024/02/18 00:20:28;;;;;;;19.83;13.32;;;7.80;1.00;;;;;;7353028;19;20344;-71
2024/02/18 00:22:58;;;;;;;21.83;16.98;;;7.80;1.00;;;;;;7352074;19;20011;-71
2024/02/18 00:25:31;;;;;;;25.25;16.75;;;7.90;1.00;;;;;;7354627;19;21759;-72
2024/02/18 00:28:01;;;;;;;18.67;13.77;;;7.90;1.00;;;;;;7356616;19;20687;-71
2024/02/18 00:30:31;;;;;;;17.55;13.35;;;7.80;1.00;;;;;;7353327;19;20058;-71
2024/02/18 00:33:01;;;;;;;19.52;13.60;;;7.80;1.00;;;;;;7354672;19;20025;-71
2024/02/18 00:35:31;;;;;;;17.75;13.35;;;7.70;1.00;;;;;;7351224;19;20025;-71
2024/02/18 00:38:01;;;;;;;16.17;12.82;;;7.60;1.00;;;;;;7354202;19;20079;-71
2024/02/18 00:40:34;;;;;;;18.98;14.10;;;7.70;1.00;;;;;;7356852;19;20003;-71
2024/02/18 00:43:23;;;;;;;19.13;13.68;;;7.60;1.00;;;;;;6846415;19;2004012;-71
2024/02/18 00:46:12;;;;;;;19.92;13.85;;;7.60;1.00;;;;;;7348369;19;20396;-71
2024/02/18 00:49:21;;;;;;;19.67;14.20;;;7.60;1.00;;;;;;6846159;19;2004037;-71
2024/02/18 00:52:10;;;;;;;19.20;13.57;;;7.60;1.00;;;;;;7353826;19;20019;-73
2024/02/18 00:54:41;;;;;;;20.95;14.38;;;7.60;1.00;;;;;;7353687;19;20090;-71
2024/02/18 00:57:13;;;;;;;17.92;13.32;;;7.60;1.00;;;;;;7351364;19;20017;-70
2024/02/18 00:59:43;;;;;;;18.73;13.75;;;7.60;1.00;;;;;;7355535;19;20010;-70
2024/02/18 01:02:13;;;;;;;19.95;14.38;;;7.70;1.00;;;;;;7354853;19;20018;-71
2024/02/18 01:04:43;;;;;;;18.92;13.85;;;7.70;1.00;;;;;;7351863;19;20507;-71
2024/02/18 01:07:13;;;;;;;18.15;12.85;;;7.70;1.00;;;;;;7350994;19;20021;-71
2024/02/18 01:09:43;;;;;;;19.75;13.35;;;7.80;1.00;;;;;;7356232;19;20737;-72
2024/02/18 01:12:16;;;;;;;17.98;13.82;;;7.70;1.00;;;;;;7355462;19;20036;-70
2024/02/18 01:18:22;;;;;;;18.45;12.23;;;7.80;1.00;;;;;;6848174;19;2004937;-71
2024/02/18 01:20:52;;;;;;;16.48;11.80;;;7.80;1.00;;;;;;7354434;19;20014;-71
2024/02/18 01:23:23;;;;;;;15.75;12.70;;;7.80;1.00;;;;;;7352420;19;20097;-71
2024/02/18 01:25:52;;;;;;;18.30;12.60;;;7.80;1.00;;;;;;7350447;19;20014;-70
2024/02/18 01:28:25;;;;;;;15.13;12.65;;;7.80;1.00;;;;;;7353678;19;20010;-71
2024/02/18 01:30:55;;;;;;;15.70;12.05;;;7.80;1.00;;;;;;7353305;19;20806;-70
2024/02/18 01:33:25;;;;;;;16.20;11.75;;;7.70;1.00;;;;;;7352794;19;20014;-70
2024/02/18 01:35:56;;;;;;;12.63;10.93;;;7.70;1.00;;;;;;7351197;19;20021;-71
2024/02/18 01:38:25;;;;;;;13.95;11.43;;;7.80;1.00;;;;;;7353591;19;20007;-71
2024/02/18 01:40:55;;;;;;;14.20;11.35;;;7.70;1.00;;;;;;7353631;19;20074;-70
2024/02/18 01:43:28;;;;;;;14.07;11.30;;;7.80;1.00;;;;;;7351266;19;20922;-70
2024/02/18 01:45:58;;;;;;;16.83;11.07;;;7.70;1.00;;;;;;7351220;19;20062;-70
2024/02/18 01:48:29;;;;;;;16.17;11.73;;;7.70;1.00;;;;;;7351439;19;20086;-71
2024/02/18 01:51:00;;;;;;;13.63;11.02;;;7.50;1.00;;;;;;7361048;19;20014;-70
2024/02/18 01:53:30;;;;;;;16.75;12.55;;;7.50;1.00;;;;;;7360638;19;20504;-71
2024/02/18 01:56:00;;;;;;;19.33;11.82;;;7.40;1.00;;;;;;7357475;19;20427;-70
2024/02/18 01:58:34;;;;;;;15.20;11.32;;;7.40;1.00;;;;;;7362434;19;20400;-70
2024/02/18 02:01:05;;;;;;;12.65;10.88;;;7.30;1.00;;;;;;7362587;19;20090;-71
2024/02/18 02:03:38;;;;;;;14.68;11.70;;;7.30;1.00;;;;;;7353306;19;20011;-71
2024/02/18 02:06:09;;;;;;;13.93;11.43;;;7.30;1.00;;;;;;7357638;19;20039;-70
2024/02/18 02:08:39;;;;;;;15.75;11.45;;;7.20;1.00;;;;;;7360857;19;20015;-71
2024/02/18 02:11:09;;;;;;;22.77;11.90;;;7.30;1.00;;;;;;7360358;19;20302;-70
2024/02/18 02:13:42;;;;;;;17.13;12.50;;;7.20;1.00;;;;;;7359191;19;20022;-70
2024/02/18 02:16:12;;;;;;;18.88;11.98;;;7.20;1.00;;;;;;7355907;19;20021;-71
2024/02/18 02:18:44;;;;;;;17.38;12.48;;;7.10;1.00;;;;;;7357990;19;20020;-71
2024/02/18 02:21:15;;;;;;;15.32;13.05;;;7.10;1.00;;;;;;7359376;19;20022;-70
2024/02/18 02:23:45;;;;;;;17.08;12.85;;;7.10;1.00;;;;;;7355267;19;20014;-70
2024/02/18 02:26:16;;;;;;;20.50;13.60;;;7.10;1.00;;;;;;7354521;19;20053;-71
2024/02/18 02:28:54;;;;;;;15.45;12.32;;;7.00;1.90;;;;;;7358890;19;20020;-71
2024/02/18 02:31:27;;;;;;;18.20;13.52;;;6.90;6.00;;;;;;7359058;19;20018;-70
2024/02/18 02:33:57;;;;;;;18.58;12.40;;;6.90;9.30;;;;;;7356974;19;20086;-70
2024/02/18 02:36:27;;;;;;;18.65;14.00;;;6.80;11.80;;;;;;7354688;19;20007;-70
2024/02/18 02:38:58;;;;;;;21.40;14.25;;;6.80;15.00;;;;;;7358579;19;20011;-70
2024/02/18 02:41:28;;;;;;;20.33;15.05;;;6.80;19.10;;;;;;7358814;19;20041;-70
2024/02/18 02:43:58;;;;;;;19.98;14.80;;;6.90;20.10;;;;;;7357698;19;20014;-70
2024/02/18 02:46:31;;;;;;;20.73;15.02;;;6.80;21.80;;;;;;7355488;19;20046;-70
2024/02/18 02:49:01;;;;;;;18.15;14.77;;;6.80;22.30;;;;;;7359023;19;21353;-70
2024/02/18 02:51:31;;;;;;;22.17;16.10;;;6.70;25.10;;;;;;7357592;19;20010;-70
2024/02/18 02:54:01;;;;;;;18.65;14.65;;;6.70;30.10;;;;;;7358086;19;20110;-70
2024/02/18 02:56:31;;;;;;;19.17;14.98;;;6.70;36.70;;;;;;7353754;19;20018;-69
2024/02/18 02:59:01;;;;;;;23.50;16.30;;;6.70;42.40;;;;;;7359743;19;20007;-70
2024/02/18 03:01:34;;;;;;;23.00;15.63;;;6.60;42.10;;;;;;7357385;19;20546;-70
2024/02/18 03:04:04;;;;;;;23.27;15.95;;;6.50;46.30;;;;;;7358348;19;20014;-70
2024/02/18 03:06:35;;;;;;;19.60;16.20;;;6.60;57.10;;;;;;7355161;19;20019;-70
2024/02/18 03:09:05;;;;;;;20.88;16.13;;;6.60;62.60;;;;;;7358294;19;21539;-70
2024/02/18 03:11:35;;;;;;;22.52;16.83;;;6.60;64.50;;;;;;7357740;19;20050;-70
2024/02/18 03:14:05;;;;;;;22.35;16.02;;;6.60;66.00;;;;;;7356440;19;20030;-71
2024/02/18 03:16:38;;;;;;;22.73;16.00;;;6.60;62.10;;;;;;7214895;19;2771149;-70
2024/02/18 03:19:08;;;;;;;21.65;15.70;;;6.60;64.40;;;;;;7359392;19;20038;-70
2024/02/18 03:21:38;;;;;;;20.35;15.65;;;6.60;58.00;;;;;;7359445;19;20010;-70
2024/02/18 03:24:10;;;;;;;21.10;15.52;;;6.60;56.80;;;;;;7357666;19;20098;-71
2024/02/18 03:26:40;;;;;;;22.95;15.52;;;6.50;60.10;;;;;;7354472;19;20041;-70
2024/02/18 03:29:11;;;;;;;20.55;15.90;;;6.50;64.50;;;;;;7359034;19;20017;-70
2024/02/18 03:31:46;;;;;;;23.90;16.42;;;6.50;67.30;;;;;;7359432;19;20387;-69
2024/02/18 03:34:16;;;;;;;21.45;15.40;;;6.50;69.30;;;;;;7356347;19;20228;-69
2024/02/18 03:36:46;;;;;;;21.92;15.82;;;6.50;67.20;;;;;;7355460;19;20090;-69
2024/02/18 03:39:16;;;;;;;23.13;16.73;;;6.50;63.40;;;;;;7360681;19;20034;-71
2024/02/18 03:41:50;;;;;;;23.23;16.60;;;6.50;64.60;;;;;;7360875;19;20010;-69
2024/02/18 03:44:19;;;;;;;24.10;16.92;;;6.50;65.10;;;;;;7359173;19;20499;-70
2024/02/18 03:46:52;;;;;;;23.13;16.52;;;6.50;62.20;;;;;;7358257;19;20386;-69
2024/02/18 03:49:23;;;;;;;20.65;15.52;;;6.50;64.00;;;;;;7362412;19;20014;-70
2024/02/18 03:51:53;;;;;;;23.58;16.20;;;6.40;56.50;;;;;;7360293;19;20094;-69
2024/02/18 03:54:23;;;;;;;23.05;16.50;;;6.50;62.80;;;;;;7358327;19;20018;-70
2024/02/18 03:56:54;;;;;;;23.40;16.98;;;6.40;59.50;;;;;;7354010;19;20018;-70
2024/02/18 03:59:25;;;;;;;24.05;17.63;;;6.50;72.00;;;;;;7358024;19;20006;-70
2024/02/18 04:01:57;;;;;;;21.92;16.77;;;6.60;74.70;;;;;;7358217;19;20014;-70
2024/02/18 04:04:27;;;;;;;23.02;17.85;;;6.60;72.60;;;;;;7357476;19;20015;-70
2024/02/18 04:06:58;;;;;;;23.02;16.10;;;6.50;61.70;;;;;;7352894;19;20803;-70
2024/02/18 04:09:28;;;;;;;22.08;16.05;;;6.50;61.90;;;;;;7358442;19;20018;-70
2024/02/18 04:11:58;;;;;;;20.90;17.02;;;6.50;65.20;;;;;;7357693;19;21331;-70
2024/02/18 04:14:28;;;;;;;22.60;16.38;;;6.60;62.60;;;;;;7356555;19;20652;-70
2024/02/18 04:17:02;;;;;;;19.35;15.80;;;6.60;55.90;;;;;;7350918;19;20006;-70
2024/02/18 04:19:32;;;;;;;22.02;15.75;;;6.60;53.20;;;;;;7358381;19;21190;-70
2024/02/18 04:22:02;;;;;;;19.75;16.17;;;6.60;47.80;;;;;;7357819;19;20049;-70
2024/02/18 04:24:33;;;;;;;26.25;16.20;;;6.50;41.40;;;;;;7355935;19;20010;-70
2024/02/18 04:27:03;;;;;;;22.20;16.08;;;6.60;48.30;;;;;;7352919;19;20013;-70
2024/02/18 04:29:33;;;;;;;21.70;15.82;;;6.60;47.20;;;;;;7358031;19;20010;-70
2024/02/18 04:32:07;;;;;;;23.95;16.65;;;6.70;44.10;;;;;;7356833;19;20526;-70
2024/02/18 04:34:37;;;;;;;20.33;15.67;;;6.60;39.80;;;;;;7358224;19;20006;-70
2024/02/18 04:37:07;;;;;;;24.55;17.40;;;6.70;40.40;;;;;;7353105;19;21230;-70
2024/02/18 04:39:37;;;;;;;19.67;16.42;;;6.60;35.50;;;;;;7360684;19;20488;-70
2024/02/18 04:42:07;;;;;;;21.48;16.08;;;6.60;43.50;;;;;;7358015;19;20018;-71
2024/02/18 04:44:38;;;;;;;20.83;15.32;;;6.60;42.90;;;;;;7357318;19;20018;-70
2024/02/18 04:47:10;;;;;;;19.63;15.82;;;6.40;42.70;;;;;;7354515;19;20010;-70
2024/02/18 04:49:40;;;;;;;20.38;16.67;;;6.40;59.20;;;;;;7358030;19;20006;-70
2024/02/18 04:52:10;;;;;;;24.00;16.20;;;6.30;63.70;;;;;;7356806;19;20036;-70
2024/02/18 04:54:41;;;;;;;20.63;15.50;;;6.40;75.50;;;;;;7357422;19;20493;-70
2024/02/18 04:57:11;;;;;;;23.27;16.25;;;6.40;77.70;;;;;;7351155;19;20014;-70
2024/02/18 04:59:41;;;;;;;21.60;16.60;;;6.30;76.90;;;;;;7357351;19;20373;-71
2024/02/18 05:02:13;;;;;;;22.58;16.90;;;6.30;77.70;;;;;;7356831;19;20547;-69
2024/02/18 05:04:44;;;;;;;21.77;16.55;;;6.30;79.10;;;;;;7355730;19;20014;-70
2024/02/18 05:07:14;;;;;;;24.05;16.40;;;6.40;88.70;;;;;;7350942;19;20010;-71
2024/02/18 05:09:44;;;;;;;23.92;17.10;;;6.40;91.30;;;;;;7357041;19;20026;-71
2024/02/18 05:12:14;;;;;;;25.23;16.50;;;6.40;90.20;;;;;;7355526;19;20369;-71
2024/02/18 05:14:44;;;;;;;21.85;17.38;;;6.40;85.10;;;;;;7356656;19;20007;-70
2024/02/18 05:17:16;;;;;;;19.27;15.68;;;6.30;82.30;;;;;;7351062;19;20014;-70
2024/02/18 05:19:47;;;;;;;25.42;16.65;;;6.40;85.10;;;;;;7357670;19;20010;-70
2024/02/18 05:22:18;;;;;;;20.60;16.27;;;6.30;83.80;;;;;;7355672;19;20067;-72
2024/02/18 05:24:48;;;;;;;21.80;16.80;;;6.40;81.40;;;;;;7355287;19;20014;-70
2024/02/18 05:27:18;;;;;;;24.27;15.73;;;6.30;80.00;;;;;;7350598;19;20041;-70
2024/02/18 05:29:48;;;;;;;19.52;15.70;;;6.40;80.40;;;;;;7356970;19;20011;-71
2024/02/18 05:32:22;;;;;;;21.50;16.63;;;6.40;75.20;;;;;;7356277;19;20555;-70
2024/02/18 05:34:52;;;;;;;21.73;16.40;;;6.20;71.60;;;;;;7354897;19;20010;-70
2024/02/18 05:37:22;;;;;;;20.00;16.05;;;6.30;74.30;;;;;;7349084;19;20007;-71
2024/02/18 05:39:52;;;;;;;21.58;16.73;;;6.30;79.60;;;;;;7355938;19;20010;-70
2024/02/18 05:42:22;;;;;;;28.35;16.73;;;6.30;81.90;;;;;;7354341;19;20589;-71
2024/02/18 05:44:52;;;;;;;21.55;16.75;;;6.20;68.70;;;;;;7355589;19;20021;-71
2024/02/18 05:47:25;;;;;;;22.00;16.90;;;6.20;71.50;;;;;;7348341;19;20134;-70
2024/02/18 05:49:55;;;;;;;22.15;17.00;;;6.20;78.40;;;;;;7355820;19;20014;-70
2024/02/18 05:52:25;;;;;;;21.77;16.80;;;6.20;83.80;;;;;;7355421;19;20049;-71
2024/02/18 05:54:56;;;;;;;24.30;16.80;;;6.30;89.00;;;;;;7353607;19;20019;-71
2024/02/18 05:57:26;;;;;;;33.10;22.85;;;6.10;79.70;;;;;;7350163;19;20015;-71
2024/02/18 05:59:56;;;;;;;22.60;17.40;;;6.10;83.80;;;;;;7356907;19;20381;-70
2024/02/18 06:02:26;;;;;;;22.15;17.35;;;6.00;87.90;;;;;;7354312;19;20035;-70
2024/02/18 06:04:56;;;;;;;24.67;17.70;;;6.00;93.30;;;;;;7356016;19;20014;-70
2024/02/18 06:07:26;;;;;;;24.02;16.92;;;6.00;92.70;;;;;;7349606;19;20017;-70
2024/02/18 06:09:56;;;;;;;23.27;17.35;;;5.90;95.40;;;;;;7356023;19;20352;-71
2024/02/18 06:12:27;;;;;;;25.10;17.67;;;5.90;97.70;;;;;;7355353;19;20016;-71
2024/02/18 06:14:58;;;;;;;22.05;17.58;;;5.90;99.90;;;;;;7355583;19;20041;-71
2024/02/18 06:17:30;;;;;;;24.73;17.75;;;5.80;99.90;;;;;;7349239;19;20321;-70
2024/02/18 06:20:00;;;;;;;22.83;17.40;;;5.80;99.90;;;;;;7352509;19;20645;-71
2024/02/18 06:22:31;;;;;;;24.58;17.05;;;5.90;99.90;;;;;;7354092;19;20018;-71
2024/02/18 06:25:01;;;;;;;24.20;17.00;;;5.90;99.90;;;;;;7354221;19;20023;-71
2024/02/18 06:27:31;;;;;;;26.02;19.10;;;5.70;99.90;;;;;;7347931;19;20448;-71
2024/02/18 06:30:01;;;;;;;24.42;18.08;;;5.70;99.90;;;;;;7354053;19;20074;-71
2024/02/18 06:32:33;;;;;;;26.55;17.90;;;5.80;99.90;;;;;;7353309;19;20002;-71
2024/02/18 06:35:04;;;;;;;22.42;17.55;;;5.90;99.90;;;;;;7354031;19;20365;-70
2024/02/18 06:37:34;;;;;;;25.80;17.80;;;5.90;99.90;;;;;;7352877;19;20516;-71
2024/02/18 06:40:04;;;;;;;23.33;17.00;;;5.90;99.90;;;;;;7360827;19;20015;-71
2024/02/18 06:42:32;;;;;;;24.00;17.17;;;6.10;99.90;;;;;;7359795;19;20047;-70
2024/02/18 06:45:02;;;;;;;26.42;18.55;;;6.10;96.00;;;;;;7362161;19;20717;-71
2024/02/18 06:47:35;;;;;;;22.75;17.50;;;6.10;91.30;;;;;;7353894;19;20025;-70
2024/02/18 06:50:05;;;;;;;25.20;17.23;;;6.10;79.40;;;;;;7360580;19;20093;-71
2024/02/18 06:52:36;;;;;;;26.10;17.98;;;6.10;68.50;;;;;;7358430;19;20394;-71
2024/02/18 06:55:07;;;;;;;21.13;16.85;;;6.10;54.80;;;;;;7360361;19;20663;-71
2024/02/18 06:57:37;;;;;;;24.77;17.08;;;6.30;54.80;;;;;;7354352;19;20021;-71
2024/02/18 07:00:08;;;;;;;21.45;16.67;;;6.20;41.10;;;;;;7361217;19;20010;-71
2024/02/18 07:02:41;;;;;;;23.25;17.48;;;6.20;28.40;;;;;;7360301;19;20463;-71
2024/02/18 07:05:12;;;;;;;26.02;17.73;;;6.20;22.90;;;;;;7358667;19;20067;-71
2024/02/18 07:07:42;;;;;;;23.65;18.20;;;6.30;22.10;;;;;;7354231;19;20013;-70
2024/02/18 07:10:12;;;;;;;20.50;16.55;;;6.30;20.20;;;;;;7360286;19;20712;-72
2024/02/18 07:12:42;;;;;;;20.10;16.10;;;6.30;16.40;;;;;;7361441;19;20010;-70
2024/02/18 07:15:13;;;;;;;20.35;16.20;;;6.30;12.30;;;;;;7360181;19;20006;-71
2024/02/18 07:17:45;;;;;;;20.77;16.55;;;6.30;12.40;;;;;;7353288;19;20094;-71
2024/02/18 07:20:16;;;;;;;20.88;16.65;;;6.30;13.50;;;;;;7360545;19;20021;-71
2024/02/18 07:22:47;;;;;;;23.10;17.52;;;6.40;13.60;;;;;;7358539;19;20446;-71
2024/02/18 07:25:17;;;;;;;21.67;17.45;;;6.30;7.30;;;;;;7359440;19;20010;-70
2024/02/18 07:27:47;;;;;;;20.50;15.60;;;6.40;7.40;;;;;;7362978;19;20014;-71
2024/02/18 07:30:17;;;;;;;22.25;16.77;;;6.60;3.90;;;;;;7370909;19;20419;-70
2024/02/18 07:32:50;;;;;;;21.88;16.58;;;6.60;1.00;;;;;;7370121;19;20010;-71
2024/02/18 07:35:20;;;;;;;22.92;17.30;;;6.70;1.00;;;;;;7370544;19;20025;-71
2024/02/18 07:37:50;;;;;;;21.30;16.08;;;6.80;1.00;;;;;;7370592;19;20364;-69
2024/02/18 07:40:20;;;;;;;21.80;15.32;;;6.80;1.00;;;;;;7371891;19;20051;-71
2024/02/18 07:42:50;;;;;;;21.42;15.93;;;7.00;1.00;;;;;;7368565;19;20022;-71
2024/02/18 07:45:20;;;;;;;18.67;14.55;;;7.00;1.00;;;;;;7371196;19;20015;-70
2024/02/18 07:47:53;;;;;;;20.48;16.15;;;7.20;1.00;;;;;;7367830;19;20017;-71
2024/02/18 07:50:23;;;;;;;17.98;14.82;;;7.30;1.00;;;;;;7371372;19;20055;-71
2024/02/18 07:52:53;;;;;;;22.27;15.70;;;7.30;1.00;;;;;;7370496;19;20033;-71
2024/02/18 07:55:23;;;;;;;18.75;15.15;;;7.30;1.00;;;;;;7370190;19;20510;-71
2024/02/18 07:57:53;;;;;;;18.35;14.93;;;7.50;1.00;;;;;;7370331;19;20010;-70
2024/02/18 08:00:23;;;;;;;18.27;14.80;;;7.50;1.00;;;;;;7370517;19;20007;-71
2024/02/18 08:02:56;;;;;;;20.23;15.63;;;7.60;1.00;;;;;;7368886;19;20781;-71
2024/02/18 08:05:26;;;;;;;17.45;14.35;;;7.70;1.00;;;;;;7369019;19;20022;-70
2024/02/18 08:07:56;;;;;;;19.60;15.25;;;7.70;1.00;;;;;;7370678;19;20026;-70
2024/02/18 08:10:26;;;;;;;17.13;14.60;;;7.70;1.00;;;;;;7371735;19;20494;-72
2024/02/18 08:12:56;;;;;;;18.23;14.23;;;7.90;1.00;;;;;;7368489;19;20011;-70
2024/02/18 08:15:27;;;;;;;19.63;14.80;;;7.90;1.00;;;;;;7369763;19;20014;-71
2024/02/18 08:17:59;;;;;;;16.88;14.00;;;8.00;1.00;;;;;;7369919;19;20010;-71
2024/02/18 08:20:29;;;;;;;22.48;15.13;;;8.10;1.00;;;;;;7371361;19;20010;-72
2024/02/18 08:22:59;;;;;;;17.27;14.50;;;8.10;1.00;;;;;;7367989;19;20304;-70
2024/02/18 08:25:30;;;;;;;17.10;13.82;;;8.20;1.00;;;;;;7369638;19;20007;-70
2024/02/18 08:28:00;;;;;;;19.85;15.23;;;8.30;1.00;;;;;;7372034;19;20089;-70
2024/02/18 08:30:30;;;;;;;24.52;15.10;;;8.30;1.00;;;;;;7369007;19;20014;-70
2024/02/18 08:33:02;;;;;;;17.35;14.52;;;8.50;1.00;;;;;;7367293;19;20045;-69
2024/02/18 08:35:32;;;;;;;19.50;14.65;;;8.40;1.00;;;;;;7365357;19;20364;-70
2024/02/18 08:38:03;;;;;;;17.58;13.55;;;8.70;1.00;;;;;;7369615;19;20491;-70
2024/02/18 08:40:33;;;;;;;20.00;13.43;;;8.70;1.00;;;;;;7368670;19;20402;-70
2024/02/18 08:43:03;;;;;;;15.45;13.02;;;8.90;1.00;;;;;;7366688;19;20011;-70
2024/02/18 08:45:33;;;;;;;21.92;13.15;;;9.00;1.00;;;;;;7369694;19;20014;-69
2024/02/18 08:48:08;;;;;;;18.52;13.93;;;9.30;1.00;;;;;;7368864;19;20014;-71
2024/02/18 08:50:38;;;;;;;17.48;12.65;;;9.60;1.00;;;;;;7366450;19;20087;-70
2024/02/18 08:53:08;;;;;;;14.23;12.55;;;9.70;1.00;;;;;;7369543;19;20020;-70
2024/02/18 08:55:39;;;;;;;13.68;11.80;;;9.60;1.00;;;;;;7371639;19;20679;-70
2024/02/18 08:58:09;;;;;;;14.48;12.30;;;9.60;1.00;;;;;;7369133;19;20010;-70
2024/02/18 09:00:39;;;;;;;15.73;12.70;;;9.50;1.00;;;;;;7368228;19;20062;-71
2024/02/18 09:03:12;;;;;;;16.42;12.48;;;9.60;1.00;;;;;;7368335;19;20011;-70
2024/02/18 09:05:42;;;;;;;15.38;12.90;;;9.70;1.00;;;;;;7367425;19;20006;-71
2024/02/18 09:08:12;;;;;;;17.20;13.38;;;10.00;1.00;;;;;;7367466;19;20014;-71
2024/02/18 09:10:42;;;;;;;14.98;12.55;;;10.00;1.00;;;;;;7367822;19;20014;-71
2024/02/18 09:13:12;;;;;;;15.60;12.18;;;10.10;1.00;;;;;;7366456;19;20010;-71
2024/02/18 09:15:42;;;;;;;14.38;12.00;;;10.00;1.00;;;;;;7369521;19;20002;-70
2024/02/18 09:18:15;;;;;;;18.83;12.60;;;10.00;1.00;;;;;;7368031;19;20010;-70
2024/02/18 09:20:46;;;;;;;19.00;12.32;;;10.20;1.00;;;;;;7369318;19;20011;-71
2024/02/18 09:23:16;;;;;;;18.88;12.40;;;10.20;1.00;;;;;;7367441;19;20014;-70
2024/02/18 09:25:47;;;;;;;14.07;12.30;;;10.30;1.00;;;;;;7368487;19;20917;-70
2024/02/18 09:28:18;;;;;;;14.38;11.60;;;10.40;1.00;;;;;;7368142;19;20015;-70
2024/02/18 09:30:48;;;;;;;16.38;13.07;;;10.60;1.00;;;;;;7367626;19;20018;-72
2024/02/18 09:33:21;;;;;;;16.52;12.20;;;10.60;1.00;;;;;;7366209;19;20032;-71
2024/02/18 09:35:52;;;;;;;13.88;11.80;;;10.80;1.00;;;;;;7367765;19;20446;-71
2024/02/18 09:38:22;;;;;;;15.55;12.02;;;10.80;1.00;;;;;;7368012;19;20002;-71
2024/02/18 09:40:52;;;;;;;13.98;11.50;;;11.00;1.00;;;;;;7367070;19;20003;-71
2024/02/18 09:43:24;;;;;;;12.95;11.52;;;10.90;1.00;;;;;;7364342;19;20686;-72
2024/02/18 09:45:57;;;;;;;16.40;12.15;;;10.80;1.00;;;;;;7364976;19;20491;-70
2024/02/18 09:48:32;;;;;;;16.70;11.43;;;10.80;1.00;;;;;;7366133;19;20011;-71
2024/02/18 09:51:02;;;;;;;13.50;11.23;;;11.10;1.00;;;;;;7366802;19;20015;-71
2024/02/18 09:53:33;;;;;;;15.27;11.65;;;11.40;1.00;;;;;;7365010;19;20244;-71
2024/02/18 09:56:04;;;;;;;14.52;11.20;;;11.30;1.00;;;;;;7363968;19;20019;-71
2024/02/18 09:58:34;;;;;;;13.88;11.63;;;11.40;1.00;;;;;;7365108;19;20102;-71
2024/02/18 10:01:02;;;;;;;16.38;12.45;;;11.30;1.00;;;;;;7365783;19;20110;-73
2024/02/18 10:03:35;;;;;;;14.63;11.55;;;11.30;1.00;;;;;;7362026;19;20011;-72
2024/02/18 10:06:06;;;;;;;15.23;11.95;;;11.50;1.00;;;;;;7365968;19;20101;-72
2024/02/18 10:08:43;;;;;;;16.40;11.77;;;11.30;1.00;;;;;;7362329;19;20011;-71
2024/02/18 10:11:16;;;;;;;14.63;11.60;;;11.20;1.00;;;;;;7367609;19;20536;-71
2024/02/18 10:13:46;;;;;;;13.90;11.93;;;11.10;1.00;;;;;;7371370;19;20014;-71
2024/02/18 10:16:17;;;;;;;15.27;12.02;;;11.10;1.00;;;;;;7372193;19;20555;-71
2024/02/18 10:18:50;;;;;;;16.10;11.93;;;11.20;1.00;;;;;;7371728;19;20465;-71
2024/02/18 10:21:20;;;;;;;15.02;11.55;;;11.60;1.00;;;;;;7372211;19;20031;-71
2024/02/18 10:23:50;;;;;;;16.42;11.65;;;11.40;1.00;;;;;;7370165;19;20032;-71
2024/02/18 10:26:20;;;;;;;14.10;11.82;;;11.30;1.00;;;;;;7370654;19;20021;-71
2024/02/18 10:28:50;;;;;;;15.98;12.82;;;11.50;1.00;;;;;;7374654;19;20014;-71
2024/02/18 10:31:20;;;;;;;15.95;12.35;;;11.70;1.00;;;;;;7373167;19;20017;-72
2024/02/18 10:33:53;;;;;;;14.45;11.85;;;11.80;1.00;;;;;;7373042;19;20545;-71
2024/02/18 10:36:27;;;;;;;15.23;12.40;;;11.80;1.00;;;;;;7373257;19;20436;-71
2024/02/18 10:39:00;;;;;;;;;;;11.70;1.00;;;;;;7371620;19;20011;-71
2024/02/18 10:41:36;;;;;;;14.73;12.02;;;11.40;1.00;;;;;;7371427;19;19915;-71
2024/02/18 10:44:12;;;;;;;14.10;10.82;;;11.60;1.00;;;;;;7369713;19;20017;-72
2024/02/18 10:46:44;;;;;;;14.27;11.43;;;11.70;1.00;;;;;;7370888;19;20014;-71
2024/02/18 10:49:22;;;;;;;13.38;11.27;;;11.60;1.00;;;;;;7371519;19;20016;-71
2024/02/18 10:51:59;;;;;;;14.77;11.38;;;11.60;1.00;;;;;;7371698;19;20022;-72
2024/02/18 10:54:37;;;;;;;15.60;11.93;;;11.90;1.00;;;;;;7371796;19;20002;-71
2024/02/18 10:57:09;;;;;;;12.50;10.63;;;12.10;1.00;;;;;;7368493;19;20050;-71
2024/02/18 10:59:50;;;;;;;12.63;10.35;;;12.30;1.00;;;;;;7372896;19;20525;-70
2024/02/18 11:02:25;;;;;;;14.70;11.93;;;12.40;1.00;;;;;;7371689;19;20014;-71
2024/02/18 11:04:59;;;;;;;12.85;10.10;;;12.60;1.00;;;;;;7372609;19;20360;-71
2024/02/18 11:07:30;;;;;;;13.57;10.40;;;12.60;1.00;;;;;;7372486;19;20006;-71
2024/02/18 11:10:02;;;;;;;16.38;10.00;;;12.60;1.00;;;;;;7373920;19;20007;-70
2024/02/18 11:12:33;;;;;;;13.98;10.00;;;12.70;1.00;;;;;;7370595;19;20003;-71
2024/02/18 11:15:06;;;;;;;13.18;10.82;;;12.70;1.00;;;;;;7373308;19;20492;-72
2024/02/18 11:17:37;;;;;;;13.95;10.20;;;12.70;1.00;;;;;;7369481;19;20006;-72
2024/02/18 11:20:12;;;;;;;12.23;10.35;;;12.80;1.00;;;;;;7372876;19;20007;-71
2024/02/18 11:22:43;;;;;;;12.75;10.20;;;12.70;1.00;;;;;;7369489;19;20018;-69
2024/02/18 11:25:19;;;;;;;12.95;9.55;;;12.90;1.00;;;;;;7377685;19;20513;-70
2024/02/18 11:27:49;;;;;;;11.85;9.07;;;13.00;1.00;;;;;;7373940;19;20031;-71
2024/02/18 11:30:19;;;;;;;15.38;9.00;;;12.60;1.00;;;;;;7369815;19;20015;-71
2024/02/18 11:32:49;;;;;;;10.02;8.27;;;12.40;1.00;;;;;;7367914;19;20112;-70
2024/02/18 11:35:22;;;;;;;9.57;8.00;;;12.40;1.00;;;;;;7369027;19;20018;-71
2024/02/18 11:37:52;;;;;;;8.43;7.30;;;12.90;1.00;;;;;;7369562;19;20011;-73
2024/02/18 11:40:23;;;;;;;9.85;7.50;;;13.10;1.00;;;;;;7363341;19;20040;-73
2024/02/18 11:42:54;;;;;;;9.93;7.88;;;13.00;1.00;;;;;;7357046;19;20337;-73
2024/02/18 11:45:26;;;;;;;8.05;7.22;;;13.10;1.00;;;;;;7359840;19;20010;-73
2024/02/18 11:47:58;;;;;;;8.30;6.82;;;13.20;1.00;;;;;;7361405;19;20014;-73
2024/02/18 11:50:32;;;;;;;10.15;8.13;;;13.30;1.00;;;;;;7357926;19;20011;-74
2024/02/18 11:53:03;;;;;;;11.67;8.20;;;13.30;1.00;;;;;;7360448;19;20130;-73
2024/02/18 11:55:34;;;;;;;9.90;7.85;;;13.10;1.00;;;;;;7363071;19;20257;-72
2024/02/18 11:58:06;;;;;;;12.73;7.85;;;13.30;1.00;;;;;;7363042;19;20014;-74
2024/02/18 12:00:38;;;;;;;10.38;7.70;;;13.30;1.00;;;;;;7356536;19;20035;-73
2024/02/18 12:03:12;;;;;;;9.57;7.93;;;13.50;1.00;;;;;;7342087;19;20046;-73
2024/02/18 12:05:46;;;;;;;10.27;7.65;;;13.20;1.00;;;;;;7359775;19;20047;-73
2024/02/18 12:08:22;;;;;;;9.25;7.70;;;13.40;1.00;;;;;;7341378;19;20025;-73
2024/02/18 12:10:53;;;;;;;9.18;7.38;;;13.50;1.00;;;;;;7339851;19;20566;-73
2024/02/18 12:13:27;;;;;;;10.10;7.78;;;13.70;1.00;;;;;;7364541;19;20510;-73
2024/02/18 12:16:00;;;;;;;10.57;7.80;;;13.40;1.00;;;;;;7353383;19;20022;-73
2024/02/18 12:18:32;;;;;;;9.25;7.93;;;13.30;1.00;;;;;;7357261;19;20007;-73
2024/02/18 12:21:07;;;;;;;9.63;7.90;;;13.30;1.00;;;;;;7355787;19;20043;-74
2024/02/18 12:23:42;;;;;;;9.67;7.53;;;13.30;1.00;;;;;;7338585;19;20026;-75
2024/02/18 12:26:14;;;;;;;9.45;7.28;;;13.50;1.00;;;;;;7367323;19;20234;-70
2024/02/18 12:28:44;;;;;;;8.45;7.05;;;13.40;1.00;;;;;;7361758;19;20021;-72
2024/02/18 12:31:20;;;;;;;11.13;7.97;;;13.50;1.00;;;;;;7358265;19;20017;-72
2024/02/18 12:33:53;;;;;;;9.27;7.50;;;13.50;1.00;;;;;;7347404;19;20015;-74
2024/02/18 12:36:27;;;;;;;11.70;8.07;;;13.20;1.00;;;;;;7359652;19;20530;-73
2024/02/18 12:38:59;;;;;;;9.15;7.82;;;13.50;1.00;;;;;;7361088;19;20288;-73
2024/02/18 12:41:33;;;;;;;12.02;8.05;;;13.30;1.00;;;;;;7337529;19;20344;-74
2024/02/18 12:44:05;;;;;;;9.20;6.57;;;13.50;1.00;;;;;;7352882;19;20046;-74
2024/02/18 12:46:38;;;;;;;8.38;6.63;;;13.70;1.00;;;;;;7360411;19;20006;-73
2024/02/18 12:49:09;;;;;;;9.85;6.97;;;13.70;1.00;;;;;;7360982;19;20526;-72
2024/02/18 12:51:44;;;;;;;7.97;6.22;;;13.70;1.00;;;;;;7356537;19;20006;-73
2024/02/18 12:54:17;;;;;;;9.07;6.35;;;13.70;1.00;;;;;;7316082;19;20010;-73
2024/02/18 12:56:48;;;;;;;7.82;6.50;;;13.30;1.00;;;;;;7359165;19;20103;-72
2024/02/18 12:59:19;;;;;;;9.30;6.57;;;13.50;1.00;;;;;;7357894;19;20851;-73
2024/02/18 13:01:49;;;;;;;7.85;6.03;;;13.70;1.00;;;;;;7357831;19;20503;-73
2024/02/18 13:04:22;;;;;;;6.75;5.70;;;13.60;1.00;;;;;;7358015;19;20443;-73
2024/02/18 13:07:08;;;;;;;7.07;5.95;;;13.40;1.00;;;;;;7358973;19;20056;-73